createdAt,value
2019-02-28T00:00:37.201Z,6.90
2019-02-28T00:03:43.117Z,6.77
2019-02-28T00:06:47.917Z,7.17
2019-02-28T00:09:52.649Z,7.07
2019-02-28T00:12:57.074Z,7.33
2019-02-28T00:16:03.375Z,7.87
2019-02-28T00:19:07.664Z,7.07
2019-02-28T00:22:14.640Z,7.50
2019-02-28T00:25:18.549Z,7.07
2019-02-28T00:28:25.548Z,6.73
2019-02-28T00:31:29.546Z,6.17
2019-02-28T00:34:36.296Z,6.43
2019-02-28T00:37:40.156Z,5.97
2019-02-28T00:40:44.598Z,5.83
2019-02-28T00:43:49.288Z,6.67
2019-02-28T00:46:53.731Z,6.37
2019-02-28T00:49:58.156Z,5.67
2019-02-28T00:53:02.602Z,6.17
2019-02-28T00:56:07.398Z,6.10
2019-02-28T00:59:12.125Z,5.87
2019-02-28T01:02:17.685Z,6.47
2019-02-28T01:05:22.723Z,6.20
2019-02-28T01:08:27.459Z,5.70
2019-02-28T01:11:32.062Z,6.63
2019-02-28T01:14:36.674Z,5.83
2019-02-28T01:17:41.535Z,6.20
2019-02-28T01:20:49.953Z,5.93
2019-02-28T01:23:52.433Z,6.30
2019-02-28T01:26:56.869Z,6.37
2019-02-28T01:30:01.296Z,6.20
2019-02-28T01:33:05.740Z,5.67
2019-02-28T01:36:12.178Z,6.33
2019-02-28T01:39:16.906Z,5.60
2019-02-28T01:42:21.795Z,6.03
2019-02-28T01:45:26.567Z,6.63
2019-02-28T01:48:31.009Z,5.83
2019-02-28T01:51:36.699Z,5.97
2019-02-28T01:54:41.240Z,6.77
2019-02-28T01:57:45.692Z,6.30
2019-02-28T02:00:50.425Z,5.83
2019-02-28T02:03:55.158Z,6.30
2019-02-28T02:07:00.404Z,5.73
2019-02-28T02:10:10.765Z,6.03
2019-02-28T02:13:15.215Z,6.07
2019-02-28T02:16:19.653Z,5.67
2019-02-28T02:19:24.087Z,6.07
2019-02-28T02:22:28.522Z,5.57
2019-02-28T02:25:37.268Z,5.70
2019-02-28T02:28:39.130Z,5.67
2019-02-28T02:31:43.887Z,6.00
2019-02-28T02:34:48.615Z,6.23
2019-02-28T02:37:53.335Z,6.03
2019-02-28T02:41:00.567Z,6.20
2019-02-28T02:44:04.545Z,5.93
2019-02-28T02:47:08.970Z,6.60
2019-02-28T02:50:16.891Z,6.03
2019-02-28T02:53:21.331Z,5.50
2019-02-28T02:56:26.019Z,6.50
2019-02-28T02:59:37.238Z,5.57
2019-02-28T03:02:36.629Z,6.20
2019-02-28T03:05:41.342Z,5.80
2019-02-28T03:08:45.794Z,6.50
2019-02-28T03:11:50.493Z,5.90
2019-02-28T03:14:55.063Z,6.67
2019-02-28T03:17:59.755Z,5.60
2019-02-28T03:21:04.500Z,6.83
2019-02-28T03:24:14.563Z,5.70
2019-02-28T03:27:19.204Z,6.07
2019-02-28T03:30:28.936Z,5.93
2019-02-28T03:33:29.214Z,5.40
2019-02-28T03:36:34.076Z,6.30
2019-02-28T03:39:38.524Z,6.17
2019-02-28T03:42:42.966Z,5.73
2019-02-28T03:45:47.413Z,6.03
2019-02-28T03:48:51.861Z,6.67
2019-02-28T03:51:56.294Z,5.60
2019-02-28T03:55:03.363Z,5.37
2019-02-28T03:58:07.252Z,6.00
2019-02-28T04:01:12.023Z,6.20
2019-02-28T04:04:16.751Z,6.67
2019-02-28T04:07:21.479Z,7.17
2019-02-28T04:10:25.931Z,6.67
2019-02-28T04:13:30.374Z,7.23
2019-02-28T04:16:34.808Z,7.03
2019-02-28T04:19:39.587Z,6.33
2019-02-28T04:22:44.016Z,6.57
2019-02-28T04:25:48.463Z,6.43
2019-02-28T04:28:54.699Z,7.00
2019-02-28T04:31:59.073Z,6.73
2019-02-28T04:35:03.986Z,6.47
2019-02-28T04:38:08.643Z,6.70
2019-02-28T04:41:13.422Z,6.77
2019-02-28T04:44:18.232Z,6.37
2019-02-28T04:47:23.460Z,7.03
2019-02-28T04:50:31.264Z,7.80
2019-02-28T04:53:34.037Z,6.33
2019-02-28T04:56:38.712Z,6.37
2019-02-28T04:59:43.400Z,7.13
2019-02-28T05:02:47.833Z,6.90
2019-02-28T05:05:52.275Z,7.30
2019-02-28T05:08:56.703Z,6.80
2019-02-28T05:12:02.462Z,6.70
2019-02-28T05:15:10.836Z,6.70
2019-02-28T05:18:15.270Z,7.03
2019-02-28T05:21:20.283Z,6.73
2019-02-28T05:24:24.714Z,6.53
2019-02-28T05:27:34.942Z,6.50
2019-02-28T05:30:35.327Z,6.53
2019-02-28T05:33:41.889Z,7.07
2019-02-28T05:36:46.258Z,7.40
2019-02-28T05:39:50.685Z,6.40
2019-02-28T05:42:58.501Z,6.83
2019-02-28T05:46:01.590Z,7.93
2019-02-28T05:49:08.650Z,7.53
2019-02-28T05:52:12.770Z,7.30
2019-02-28T05:55:17.507Z,7.07
2019-02-28T05:58:21.952Z,6.57
2019-02-28T06:01:26.656Z,7.00
2019-02-28T06:04:31.091Z,7.20
2019-02-28T06:07:35.826Z,6.87
2019-02-28T06:10:40.274Z,8.83
2019-02-28T06:13:44.709Z,7.27
2019-02-28T06:16:49.150Z,7.57
2019-02-28T06:19:53.611Z,7.60
2019-02-28T06:22:58.166Z,7.20
2019-02-28T06:26:02.865Z,6.73
2019-02-28T06:29:07.630Z,6.47
2019-02-28T06:32:13.607Z,8.40
2019-02-28T06:35:20.357Z,6.20
2019-02-28T06:38:24.864Z,7.27
2019-02-28T06:41:29.301Z,7.57
2019-02-28T06:44:33.737Z,7.83
2019-02-28T06:47:39.097Z,9.07
2019-02-28T06:50:44.730Z,8.60
2019-02-28T06:53:49.986Z,7.83
2019-02-28T06:56:55.326Z,8.83
2019-02-28T06:59:59.914Z,8.77
2019-02-28T07:03:04.483Z,8.70
2019-02-28T07:06:08.886Z,7.90
2019-02-28T07:09:13.606Z,8.77
2019-02-28T07:12:18.063Z,8.77
2019-02-28T07:15:24.813Z,8.50
2019-02-28T07:18:28.742Z,8.67
2019-02-28T07:21:34.554Z,8.70
2019-02-28T07:24:39.109Z,8.67
2019-02-28T07:27:43.630Z,7.43
2019-02-28T07:30:50.298Z,8.17
2019-02-28T07:33:54.251Z,8.80
2019-02-28T07:36:58.700Z,9.47
2019-02-28T07:40:03.585Z,10.13
2019-02-28T07:43:12.030Z,10.73
2019-02-28T07:46:14.191Z,12.33
2019-02-28T07:49:18.630Z,12.43
2019-02-28T07:52:23.071Z,12.87
2019-02-28T07:55:30.507Z,11.13
2019-02-28T07:58:34.123Z,10.03
2019-02-28T08:01:38.555Z,10.00
2019-02-28T08:04:43.717Z,9.43
2019-02-28T08:07:52.069Z,9.50
2019-02-28T08:10:54.873Z,11.33
2019-02-28T08:13:59.606Z,10.17
2019-02-28T08:17:05.505Z,10.63
2019-02-28T08:20:10.602Z,10.37
2019-02-28T08:23:15.336Z,9.03
2019-02-28T08:26:19.799Z,9.83
2019-02-28T08:29:24.485Z,9.17
2019-02-28T08:32:28.918Z,9.20
2019-02-28T08:35:34.800Z,9.93
2019-02-28T08:38:39.537Z,9.57
2019-02-28T08:41:44.041Z,9.50
2019-02-28T08:44:48.485Z,8.87
2019-02-28T08:47:56.782Z,8.67
2019-02-28T08:50:59.797Z,8.73
2019-02-28T08:54:06.035Z,8.50
2019-02-28T08:57:10.562Z,9.03
2019-02-28T09:00:21.219Z,9.60
2019-02-28T09:03:27.233Z,9.93
2019-02-28T09:06:32.126Z,10.83
2019-02-28T09:09:36.950Z,10.50
2019-02-28T09:12:41.781Z,10.63
2019-02-28T09:15:46.621Z,11.77
2019-02-28T09:18:51.073Z,10.67
2019-02-28T09:21:55.517Z,11.77
2019-02-28T09:25:00.297Z,12.27
2019-02-28T09:28:04.813Z,12.83
2019-02-28T09:31:09.658Z,11.43
2019-02-28T09:34:14.116Z,13.10
2019-02-28T09:37:18.807Z,12.63
2019-02-28T09:40:25.641Z,12.83
2019-02-28T09:43:29.436Z,12.67
2019-02-28T09:46:34.236Z,13.27
2019-02-28T09:49:38.677Z,13.80
2019-02-28T09:52:43.197Z,13.40
2019-02-28T09:55:47.637Z,13.33
2019-02-28T09:58:52.460Z,13.50
2019-02-28T10:02:01.301Z,12.60
2019-02-28T10:05:06.595Z,16.70
2019-02-28T10:08:09.696Z,13.60
2019-02-28T10:11:14.170Z,13.20
2019-02-28T10:14:18.646Z,11.53
2019-02-28T10:17:25.861Z,11.37
2019-02-28T10:20:39.310Z,12.57
2019-02-28T10:23:43.742Z,10.27
2019-02-28T10:26:51.520Z,11.70
2019-02-28T10:29:54.690Z,11.27
2019-02-28T10:32:59.135Z,11.10
2019-02-28T10:36:03.584Z,10.78
2019-02-28T10:39:08.873Z,10.95
2019-02-28T10:42:14.209Z,11.73
2019-02-28T10:45:19.068Z,11.15
2019-02-28T10:48:23.579Z,11.90
2019-02-28T10:51:28.331Z,11.08
2019-02-28T10:54:32.781Z,11.78
2019-02-28T10:57:40.690Z,10.43
2019-02-28T11:00:45.630Z,10.03
2019-02-28T11:03:50.415Z,10.60
2019-02-28T11:06:54.870Z,9.95
2019-02-28T11:10:01.823Z,9.03
2019-02-28T11:13:12.821Z,8.80
2019-02-28T11:16:20.529Z,8.73
2019-02-28T11:19:23.695Z,8.73
2019-02-28T11:22:28.216Z,9.20
2019-02-28T11:25:35.532Z,8.63
2019-02-28T11:28:39.218Z,9.50
2019-02-28T11:31:43.670Z,7.97
2019-02-28T11:34:48.665Z,8.60
2019-02-28T11:37:53.883Z,8.75
2019-02-28T11:40:58.478Z,8.08
2019-02-28T11:44:03.177Z,8.13
2019-02-28T11:47:08.430Z,7.83
2019-02-28T11:50:13.879Z,8.15
2019-02-28T11:53:19.236Z,9.33
2019-02-28T11:56:25.580Z,9.00
2019-02-28T11:59:30.067Z,7.60
2019-02-28T12:02:34.528Z,8.68
2019-02-28T12:05:39.264Z,7.87
2019-02-28T12:08:45.112Z,8.58
2019-02-28T12:11:50.121Z,8.65
2019-02-28T12:14:54.576Z,8.80
2019-02-28T12:18:03.629Z,8.63
2019-02-28T12:21:05.494Z,9.03
2019-02-28T12:24:09.926Z,9.50
2019-02-28T12:27:14.379Z,9.23
2019-02-28T12:30:25.098Z,9.05
2019-02-28T12:33:28.871Z,11.38
2019-02-28T12:36:33.566Z,8.95
2019-02-28T12:39:38.368Z,9.48
2019-02-28T12:42:42.819Z,9.50
2019-02-28T12:45:47.905Z,10.63
2019-02-28T12:48:52.356Z,9.40
2019-02-28T12:51:57.081Z,9.08
2019-02-28T12:55:04.016Z,9.05
2019-02-28T12:58:07.989Z,9.33
2019-02-28T13:01:12.432Z,9.70
2019-02-28T13:04:17.140Z,10.13
2019-02-28T13:07:21.863Z,9.43
2019-02-28T13:10:27.923Z,9.50
2019-02-28T13:13:33.171Z,9.98
2019-02-28T13:16:37.616Z,11.38
2019-02-28T13:19:42.074Z,10.18
2019-02-28T13:22:46.860Z,11.20
2019-02-28T13:25:51.788Z,10.95
2019-02-28T13:28:57.446Z,11.22
2019-02-28T13:32:02.811Z,10.68
2019-02-28T13:35:14.082Z,11.45
2019-02-28T13:38:19.725Z,10.25
2019-02-28T13:41:26.764Z,10.63
2019-02-28T13:44:31.589Z,11.22
2019-02-28T13:47:37.202Z,11.30
2019-02-28T13:50:41.650Z,10.75
2019-02-28T13:53:46.178Z,11.50
2019-02-28T13:56:50.873Z,9.90
2019-02-28T13:59:55.605Z,10.43
2019-02-28T14:03:09.479Z,11.08
2019-02-28T14:06:18.740Z,10.35
2019-02-28T14:09:22.189Z,10.75
2019-02-28T14:12:26.140Z,10.10
2019-02-28T14:15:52.375Z,11.63
2019-02-28T14:18:56.852Z,10.38
2019-02-28T14:22:01.294Z,11.48
2019-02-28T14:25:09.183Z,10.28
2019-02-28T14:28:13.923Z,10.58
2019-02-28T14:31:18.367Z,10.03
2019-02-28T14:34:26.156Z,9.70
2019-02-28T14:37:29.021Z,9.48
2019-02-28T14:40:33.477Z,9.40
2019-02-28T14:43:37.932Z,9.28
2019-02-28T14:46:42.521Z,9.20
2019-02-28T14:49:46.986Z,10.05
2019-02-28T14:52:55.435Z,9.70
2019-02-28T14:55:59.928Z,9.55
2019-02-28T14:59:04.375Z,10.60
2019-02-28T15:02:08.834Z,10.08
2019-02-28T15:05:16.689Z,9.83
2019-02-28T15:08:22.191Z,9.33
2019-02-28T15:11:27.004Z,9.23
2019-02-28T15:14:31.465Z,9.73
2019-02-28T15:17:38.670Z,9.90
2019-02-28T15:20:42.427Z,9.40
2019-02-28T15:23:46.880Z,9.50
2019-02-28T15:26:51.325Z,7.80
2019-02-28T15:29:58.866Z,8.88
2019-02-28T15:33:02.595Z,7.80
2019-02-28T15:36:07.332Z,8.45
2019-02-28T15:39:12.037Z,11.53
2019-02-28T15:42:16.549Z,14.60
2019-02-28T15:45:21.010Z,13.70
2019-02-28T15:48:25.469Z,12.77
2019-02-28T15:51:30.333Z,13.70
2019-02-28T15:54:34.775Z,12.67
2019-02-28T15:57:39.812Z,12.83
2019-02-28T16:00:44.544Z,13.93
2019-02-28T16:03:51.286Z,13.90
2019-02-28T16:06:57.955Z,12.77
2019-02-28T16:10:02.007Z,14.63
2019-02-28T16:13:08.174Z,14.03
2019-02-28T16:16:12.626Z,14.07
2019-02-28T16:19:18.872Z,15.13
2019-02-28T16:22:23.244Z,16.77
2019-02-28T16:25:34.232Z,15.27
2019-02-28T16:28:39.535Z,15.63
2019-02-28T16:31:44.923Z,15.30
2019-02-28T16:34:49.435Z,15.13
2019-02-28T16:37:53.885Z,14.37
2019-02-28T16:41:00.825Z,13.93
2019-02-28T16:44:04.801Z,14.17
2019-02-28T16:47:09.567Z,12.80
2019-02-28T16:50:15.379Z,13.97
2019-02-28T16:53:20.835Z,13.83
2019-02-28T16:56:25.667Z,13.20
2019-02-28T16:59:31.544Z,12.57
2019-02-28T17:02:36.869Z,13.37
2019-02-28T17:05:41.321Z,12.20
2019-02-28T17:08:47.668Z,11.80
2019-02-28T17:11:54.029Z,12.20
2019-02-28T17:14:58.498Z,12.00
2019-02-28T17:18:04.934Z,10.70
2019-02-28T17:21:09.390Z,10.07
2019-02-28T17:24:13.845Z,9.57
2019-02-28T17:27:20.247Z,9.23
2019-02-28T17:30:29.671Z,9.63
2019-02-28T17:33:34.732Z,10.30
2019-02-28T17:36:39.192Z,10.63
2019-02-28T17:39:44.026Z,10.47
2019-02-28T17:42:49.671Z,10.57
2019-02-28T17:45:55.080Z,11.03
2019-02-28T17:49:26.389Z,11.00
2019-02-28T17:52:59.754Z,10.60
2019-02-28T17:56:30.990Z,10.83
2019-02-28T17:59:59.442Z,11.17
2019-02-28T18:03:26.118Z,12.27
2019-02-28T18:06:52.239Z,14.57
2019-02-28T18:10:13.266Z,13.47
2019-02-28T18:13:43.084Z,13.43
2019-02-28T18:17:21.294Z,13.73
2019-02-28T18:21:00.716Z,13.53
2019-02-28T18:24:27.808Z,12.90
2019-02-28T18:28:03.481Z,12.60
2019-02-28T18:31:12.994Z,11.67
2019-02-28T18:34:20.535Z,11.77
2019-02-28T18:37:24.506Z,10.37
2019-02-28T18:40:29.143Z,9.57
2019-02-28T18:43:33.587Z,7.67
2019-02-28T18:46:38.053Z,7.90
2019-02-28T18:49:42.503Z,7.10
2019-02-28T18:52:47.239Z,6.53
2019-02-28T18:55:51.971Z,8.23
2019-02-28T18:58:56.704Z,6.83
2019-02-28T19:02:01.151Z,6.47
2019-02-28T19:05:07.256Z,5.03
2019-02-28T19:08:11.803Z,4.90
2019-02-28T19:11:16.352Z,5.37
2019-02-28T19:14:20.789Z,4.87
2019-02-28T19:17:25.496Z,5.17
2019-02-28T19:20:29.931Z,5.13
2019-02-28T19:23:34.665Z,4.33
2019-02-28T19:26:39.379Z,4.83
2019-02-28T19:29:43.811Z,3.93
2019-02-28T19:32:48.271Z,4.27
2019-02-28T19:35:52.968Z,3.37
2019-02-28T19:38:57.419Z,3.60
2019-02-28T19:42:02.240Z,4.23
2019-02-28T19:45:38.291Z,4.40
2019-02-28T19:48:42.744Z,3.70
2019-02-28T19:51:47.204Z,3.87
2019-02-28T19:54:51.640Z,3.10
2019-02-28T19:57:56.388Z,3.37
2019-02-28T20:01:00.829Z,3.00
2019-02-28T20:04:05.639Z,3.67
2019-02-28T20:07:10.476Z,3.20
2019-02-28T20:10:18.062Z,3.00
2019-02-28T20:13:22.797Z,3.53
2019-02-28T20:16:27.535Z,3.57
2019-02-28T20:19:31.973Z,3.30
2019-02-28T20:22:36.493Z,3.83
2019-02-28T20:25:40.929Z,3.03
2019-02-28T20:28:45.865Z,3.10
2019-02-28T20:31:50.571Z,4.00
2019-02-28T20:34:55.304Z,3.57
2019-02-28T20:38:00.034Z,4.40
2019-02-28T20:41:04.867Z,3.77
2019-02-28T20:44:09.327Z,3.40
2019-02-28T20:47:14.022Z,3.53
2019-02-28T20:50:23.556Z,3.13
2019-02-28T20:53:27.998Z,3.67
2019-02-28T20:56:32.439Z,3.30
2019-02-28T20:59:36.894Z,3.27
2019-02-28T21:02:41.352Z,2.87
2019-02-28T21:05:45.867Z,3.00
2019-02-28T21:08:50.615Z,3.33
2019-02-28T21:11:55.059Z,3.00
2019-02-28T21:15:01.322Z,4.10
2019-02-28T21:18:06.446Z,3.40
2019-02-28T21:21:11.205Z,3.57
2019-02-28T21:24:15.628Z,2.87
2019-02-28T21:27:20.073Z,3.37
2019-02-28T21:30:27.314Z,3.30
2019-02-28T21:33:31.766Z,3.97
2019-02-28T21:36:36.212Z,4.10
2019-02-28T21:39:40.658Z,3.37
2019-02-28T21:42:45.096Z,3.27
2019-02-28T21:45:49.559Z,3.50
2019-02-28T21:48:54.266Z,3.03
2019-02-28T21:51:58.995Z,2.80
2019-02-28T21:55:04.318Z,3.63
2019-02-28T21:58:09.073Z,2.77
2019-02-28T22:01:13.512Z,2.90
2019-02-28T22:04:17.957Z,2.90
2019-02-28T22:07:22.754Z,3.00
2019-02-28T22:10:27.211Z,2.70
2019-02-28T22:13:32.007Z,2.77
2019-02-28T22:16:36.739Z,2.60
2019-02-28T22:19:41.187Z,2.83
2019-02-28T22:22:46.000Z,2.03
2019-02-28T22:25:50.729Z,2.20
2019-02-28T22:28:55.177Z,2.43
2019-02-28T22:32:07.577Z,3.03
2019-02-28T22:35:14.037Z,2.20
2019-02-28T22:38:18.483Z,3.43
2019-02-28T22:41:23.188Z,2.43
2019-02-28T22:44:27.635Z,2.43
2019-02-28T22:47:32.073Z,2.60
2019-02-28T22:50:36.519Z,2.20
2019-02-28T22:53:41.294Z,2.00
2019-02-28T22:56:46.572Z,2.10
2019-02-28T22:59:51.019Z,2.20
2019-02-28T23:02:55.461Z,2.40
2019-02-28T23:05:59.977Z,2.20
2019-02-28T23:09:05.270Z,1.70
2019-02-28T23:12:09.981Z,2.03
2019-02-28T23:15:14.730Z,2.00
2019-02-28T23:18:19.177Z,1.80
2019-02-28T23:21:23.618Z,1.70
2019-02-28T23:24:28.090Z,2.10
2019-02-28T23:27:32.812Z,1.60
2019-02-28T23:30:57.108Z,1.90
2019-02-28T23:34:14.486Z,2.03
2019-02-28T23:37:19.267Z,2.10
2019-02-28T23:40:23.703Z,2.50
2019-02-28T23:43:28.425Z,1.77
2019-02-28T23:46:33.156Z,2.60
2019-02-28T23:49:37.590Z,2.50
2019-02-28T23:52:42.040Z,2.63
2019-02-28T23:55:46.530Z,2.97
2019-02-28T23:58:51.262Z,2.47
